Latest Coastal Weather Observations for Montague Island

IDN60701

Issued at 9:51 pm EST Monday 22 July 2019 (issued every 10 minutes, with the page automatically refreshed every 10 minutes)

About coastal observations | Map of coastal stations | Coastal observations for NSW | Marine services | Other Formats
Station Details ID: 069017 Name: MONTAGUE ISLAND LIGHTHOUSE Lat: -36.25 Lon: 150.23 Height: 52.0 m
Data from the previous 72 hours. | See also: Recent months at Montague Island
Date/Time
EST
Wind Sea
Height
m
Swell Vis
km
Cloud Weather Temp
°C
Press
hPa
Rain since
9am
mm
Dir  Spd
kts
Gust
kts
Height
m
Period
s
Dir
22/09:30pm NNW 11 14 - - - - - - - 16.4 1013.5 0.0
22/09:00pm NNW 15 19 - - - - - - - 16.9 1013.5 0.0
22/08:30pm NNW 14 18 - - - - - - - 17.0 1013.2 0.0
22/08:00pm N 15 19 - - - - - - - 17.0 1013.1 0.0
22/07:30pm N 16 20 - - - - - - - 16.9 1012.8 0.0
22/07:00pm N 17 22 - - - - - - - 16.8 1012.6 0.0
22/06:30pm N 21 25 - - - - - - - 17.0 1012.4 0.0
22/06:00pm N 22 26 - - - - - - - 17.0 1011.8 0.0
22/05:30pm N 22 26 - - - - - - - 16.9 1011.8 0.0
22/05:00pm NNE 21 27 - - - - - - - 16.8 1011.5 0.0
22/04:30pm NNE 22 26 - - - - - - - 16.7 1011.4 0.0
22/04:00pm NNE 20 24 - - - - - - - 16.7 1011.5 0.0
22/03:30pm NNE 17 22 - - - - - - - 16.8 1011.7 0.0
22/03:00pm NNE 16 19 - - - - - - - 16.7 1011.7 0.0
22/02:30pm NNE 15 18 - - - - - - - 16.8 1012.1 0.0
22/02:00pm NNE 13 15 - - - - - - - 16.7 1012.4 0.0
22/01:30pm NNE 11 14 - - - - - - - 16.7 1012.8 0.0
22/01:00pm NNE 8 11 - - - - - - - 16.9 1013.3 0.0
22/12:30pm NNE 9 12 - - - - - - - 16.6 1013.9 0.0
22/12:00pm NNE 7 9 - - - - - - - 16.6 1014.5 0.0
22/11:30am NNE 6 8 - - - - - - - 15.9 1015.1 0.0
22/11:00am NNW 4 6 - - - - - - - 16.2 1015.8 0.0
22/10:30am NW 4 5 - - - - - - - 15.9 1016.2 0.0
22/10:00am NW 4 5 - - - - - - - 15.7 1016.5 0.0
22/09:30am WNW 4 5 - - - - - - - 15.4 1016.6 0.0
22/09:00am WNW 3 4 - - - - - - - 15.0 1016.7 0.0
22/08:30am W 4 5 - - - - - - - 14.2 1016.7 0.0
22/08:00am W 6 7 - - - - - - - 13.3 1016.6 0.0
22/07:30am W 6 7 - - - - - - - 12.3 1016.3 0.0
22/07:00am W 6 7 - - - - - - - 12.0 1016.1 0.0
22/06:30am WSW 6 7 - - - - - - - 12.1 1015.8 0.0
22/06:00am WSW 6 7 - - - - - - - 12.3 1015.6 0.0
22/05:30am WSW 6 8 - - - - - - - 12.6 1015.4 0.0
22/05:00am WSW 6 7 - - - - - - - 12.9 1015.3 0.0
22/04:30am WSW 8 10 - - - - - - - 12.9 1015.1 0.0
22/04:00am SW 8 10 - - - - - - - 12.9 1015.1 0.0
22/03:30am SW 9 11 - - - - - - - 13.1 1015.2 0.0
22/03:00am SW 8 10 - - - - - - - 13.3 1015.2 0.0
22/02:30am S 9 13 - - - - - - - 13.8 1015.2 0.0
22/02:00am S 12 14 - - - - - - - 14.3 1015.1 0.0
22/01:30am S 11 14 - - - - - - - 14.2 1015.2 0.0
22/01:00am S 13 16 - - - - - - - 14.4 1015.0 0.0
22/12:30am SSE 13 16 - - - - - - - 14.6 1015.1 0.0
22/12:00am SSW 11 15 - - - - - - - 14.3 1015.2 0.0
 
Date/Time
EST
Wind Sea
Height
m
Swell Vis
km
Cloud Weather Temp
°C
Press
hPa
Rain since
9am
mm
Dir  Spd
kts
Gust
kts
Height
m
Period
s
Dir
21/11:30pm SSW 7 8 - - - - - - - 14.9 1014.8 0.0
21/11:00pm SW 2 3 - - - - - - - 15.4 1014.5 0.0
21/10:30pm WSW 3 5 - - - - - - - 15.0 1014.1 0.0
21/10:00pm WSW 6 9 - - - - - - - 15.2 1014.0 0.0
21/09:30pm NW 10 13 - - - - - - - 15.9 1013.7 0.0
21/09:00pm WNW 9 11 - - - - - - - 16.6 1013.5 0.0
21/08:30pm WNW 5 7 - - - - - - - 16.4 1013.4 0.0
21/08:00pm NNW 7 13 - - - - - - - 17.0 1013.3 0.0
21/07:30pm NW 9 12 - - - - - - - 16.6 1012.7 0.0
21/07:00pm WNW 12 17 - - - - - - - 17.1 1012.1 0.0
21/06:30pm WNW 14 19 - - - - - - - 17.2 1011.4 0.0
21/06:00pm NW 19 25 - - - - - - - 17.8 1010.8 0.0
21/05:53pm NW 15 25 - - - - - - - 18.1 1010.6 0.0
21/05:30pm N 15 19 - - - - - - - 17.9 1010.4 0.0
21/05:00pm N 16 20 - - - - - - - 18.5 1010.0 0.0
21/04:30pm N 17 21 - - - - - - - 18.7 1010.0 0.0
21/04:00pm NE 8 12 - - - - - - - 18.1 1010.1 0.0
21/03:30pm NE 11 14 - - - - - - - 18.7 1010.1 0.0
21/03:00pm NNE 11 14 - - - - - - - 18.8 1010.0 0.0
21/02:30pm NE 12 15 - - - - - - - 18.4 1009.9 0.0
21/02:00pm NE 11 14 - - - - - - - 18.4 1010.1 0.0
21/01:30pm NNE 11 13 - - - - - - - 17.7 1010.4 0.0
21/01:00pm NNE 11 13 - - - - - - - 18.5 1010.6 0.0
21/12:30pm NNE 7 9 - - - - - - - 18.9 1011.1 0.0
21/12:00pm NNE 5 7 - - - - - - - 18.5 1011.3 0.0
21/11:30am NNW 8 10 - - - - - - - 18.4 1011.7 0.0
21/11:00am NNW 9 12 - - - - - - - 18.6 1012.2 0.0
21/10:30am NNW 9 12 - - - - - - - 17.5 1012.6 0.0
21/10:00am NNW 11 14 - - - - - - - 16.6 1012.6 0.0
21/09:30am NW 9 11 - - - - - - - 16.3 1013.2 0.0
21/09:00am NNW 9 12 - - - - - - - 15.9 1013.7 0.0
21/08:30am NW 7 9 - - - - - - - 15.6 1013.9 0.0
21/08:00am WNW 13 15 - - - - - - - 15.0 1013.6 0.0
21/07:30am WNW 10 14 - - - - - - - 13.6 1013.8 0.0
21/07:00am NW 7 9 - - - - - - - 12.6 1013.7 0.0
21/06:30am NNW 6 8 - - - - - - - 12.3 1013.4 0.0
21/06:00am WNW 6 8 - - - - - - - 12.3 1013.2 0.0
21/05:30am NW 10 13 - - - - - - - 13.0 1012.9 0.0
21/05:00am NW 9 12 - - - - - - - 12.7 1012.9 0.0
21/04:30am WNW 7 9 - - - - - - - 12.7 1013.1 0.0
21/04:00am NNW 16 24 - - - - - - - 14.8 1013.4 0.0
21/03:30am NNW 19 24 - - - - - - - 15.6 1013.3 0.0
21/03:00am N 19 24 - - - - - - - 15.5 1013.7 0.0
21/02:30am N 17 23 - - - - - - - 15.5 1013.8 0.0
21/02:00am N 19 24 - - - - - - - 15.6 1014.0 0.0
21/01:30am N 20 25 - - - - - - - 15.5 1014.1 0.0
21/01:23am NNW 20 25 - - - - - - - 15.4 1014.2 0.0
21/01:00am NW 18 24 - - - - - - - 13.8 1014.3 0.0
21/12:42am NW 16 27 - - - - - - - 14.0 1014.5 0.0
21/12:30am WNW 10 16 - - - - - - - 12.0 1014.9 0.0
21/12:00am NW 15 20 - - - - - - - 13.3 1015.1 0.0
 
Date/Time
EST
Wind Sea
Height
m
Swell Vis
km
Cloud Weather Temp
°C
Press
hPa
Rain since
9am
mm
Dir  Spd
kts
Gust
kts
Height
m
Period
s
Dir
20/11:30pm NW 10 13 - - - - - - - 12.1 1015.5 0.0
20/11:00pm NW 10 12 - - - - - - - 12.2 1015.8 0.0
20/10:30pm NW 12 15 - - - - - - - 12.4 1016.0 0.0
20/10:00pm NNW 9 13 - - - - - - - 12.7 1016.4 0.0
20/09:30pm NW 11 14 - - - - - - - 12.6 1016.6 0.0
20/09:00pm WNW 7 9 - - - - - - - 12.1 1016.7 0.0
20/08:30pm W 4 6 - - - - - - - 12.3 1016.9 0.0
20/08:00pm W 6 8 - - - - - - - 12.7 1016.9 0.0
20/07:30pm WSW 4 6 - - - - - - - 13.5 1017.0 0.0
20/07:00pm CALM 0 0 - - - - - - - 14.0 1017.1 0.0
20/06:30pm N 1 3 - - - - - - - 14.1 1017.2 0.0
20/06:00pm N 4 6 - - - - - - - 13.8 1017.4 0.0
20/05:30pm N 4 5 - - - - - - - 13.9 1017.5 0.0
20/05:00pm NNE 1 4 - - - - - - - 13.8 1017.4 0.0
20/04:30pm NNE 4 7 - - - - - - - 13.9 1017.4 0.0
20/04:00pm NNE 2 5 - - - - - - - 14.1 1017.7 0.0
20/03:30pm NE 1 5 - - - - - - - 14.6 1017.7 0.0
20/03:00pm NE 1 6 - - - - - - - 14.6 1017.8 0.0
20/02:30pm NE 1 6 - - - - - - - 14.6 1017.8 0.0
20/02:00pm NE 3 7 - - - - - - - 14.2 1018.1 0.0
20/01:30pm NE 3 8 - - - - - - - 14.4 1018.2 0.0
20/01:00pm NNE 7 11 - - - - - - - 14.5 1018.6 0.0
20/12:30pm NNE 4 8 - - - - - - - 14.6 1019.1 0.0
20/12:00pm NNE 3 7 - - - - - - - 14.7 1019.5 0.0
20/11:30am NNW 2 6 - - - - - - - 14.7 1020.2 0.0
20/11:00am NNW 3 6 - - - - - - - 14.6 1020.7 0.0
20/10:30am NNW 2 5 - - - - - - - 13.8 1021.0 0.0
20/10:00am N 1 5 - - - - - - - 13.7 1021.4 0.0
20/09:30am NW 1 4 - - - - - - - 13.7 1021.5 0.0
20/09:00am NW 5 8 - - - - - - - 12.6 1021.8 0.0
20/08:30am WNW 4 5 - - - - - - - 12.4 1021.6 0.0
20/08:00am WSW 3 5 - - - - - - - 12.1 1021.5 0.0
20/07:30am SW 6 7 - - - - - - - 10.9 1021.2 0.0
20/07:00am SW 8 9 - - - - - - - 10.8 1021.0 0.0
20/06:30am SW 7 8 - - - - - - - 11.3 1021.0 0.0
20/06:00am SW 7 8 - - - - - - - 11.4 1020.9 0.0
20/05:30am SW 8 9 - - - - - - - 11.7 1021.1 0.0
20/05:00am SW 7 8 - - - - - - - 11.7 1021.1 0.0
20/04:30am SW 6 7 - - - - - - - 12.5 1021.1 0.0
20/04:00am SSW 3 5 - - - - - - - 13.1 1021.0 0.0
20/03:30am WNW 2 4 - - - - - - - 13.2 1021.2 0.0
20/03:00am NNW 2 4 - - - - - - - 14.0 1021.5 0.0
20/02:30am NE 1 4 - - - - - - - 14.3 1021.9 0.0
20/02:00am NNE 2 6 - - - - - - - 14.4 1021.8 0.0
20/01:30am NE 1 5 - - - - - - - 14.4 1021.8 0.0
20/01:00am NNE 2 6 - - - - - - - 14.5 1021.7 0.0
20/12:30am NE 1 5 - - - - - - - 14.4 1021.7 0.0
20/12:00am CALM 0 3 - - - - - - - 14.4 1021.6 0.0
 
Date/Time
EST
Wind Sea
Height
m
Swell Vis
km
Cloud Weather Temp
°C
Press
hPa
Rain since
9am
mm
Dir  Spd
kts
Gust
kts
Height
m
Period
s
Dir
19/11:30pm CALM 0 4 - - - - - - - 14.4 1021.8 0.0
19/11:00pm CALM 0 3 - - - - - - - 14.3 1022.1 0.0
19/10:30pm CALM 0 3 - - - - - - - 14.3 1022.0 0.0
19/10:00pm CALM 0 3 - - - - - - - 14.2 1022.2 0.0

Other formats

Comma delimited format used in spreadsheet applications
http://www.bom.gov.au/fwo/IDN60701/IDN60701.94939.axf

JavaScript Object Notation format (JSON) in row-major order
http://www.bom.gov.au/fwo/IDN60701/IDN60701.94939.json

Data quality

Most of these data are generated automatically and are frequently updated. Quality checks on data are not normally performed. It is possible for incorrect values to appear. Refer to information at About Latest Weather Observations and please check the disclaimer before using these data.